createdAt,value
2019-05-06T00:00:24.592Z,101708.56
2019-05-06T00:01:29.417Z,101712.72
2019-05-06T00:02:34.458Z,101714.16
2019-05-06T00:03:39.317Z,101713.14
2019-05-06T00:04:44.798Z,101710.92
2019-05-06T00:05:49.945Z,101707.50
2019-05-06T00:06:55.090Z,101712.63
2019-05-06T00:07:59.664Z,101705.23
2019-05-06T00:09:05.720Z,101709.91
2019-05-06T00:10:28.292Z,101708.73
2019-05-06T00:11:34.625Z,101703.30
2019-05-06T00:12:40.297Z,101708.02
2019-05-06T00:13:45.391Z,101709.62
2019-05-06T00:14:51.012Z,101708.44
2019-05-06T00:15:58.817Z,101706.34
2019-05-06T00:17:04.349Z,101702.77
2019-05-06T00:18:09.635Z,101707.58
2019-05-06T00:19:15.336Z,101706.31
2019-05-06T00:20:20.125Z,101705.17
2019-05-06T00:21:24.827Z,101705.73
2019-05-06T00:22:29.681Z,101705.76
2019-05-06T00:23:39.266Z,101708.75
2019-05-06T00:24:50.336Z,101706.94
2019-05-06T00:26:13.639Z,101711.51
2019-05-06T00:27:29.955Z,101710.91
2019-05-06T00:28:39.955Z,101711.44
2019-05-06T00:29:46.889Z,101709.84
2019-05-06T00:30:55.840Z,101710.02
2019-05-06T00:32:00.498Z,101706.54
2019-05-06T00:33:05.105Z,101709.34
2019-05-06T00:34:09.987Z,101707.33
2019-05-06T00:35:15.018Z,101711.16
2019-05-06T00:36:19.753Z,101709.40
2019-05-06T00:37:24.759Z,101710.81
2019-05-06T00:38:29.786Z,101706.53
2019-05-06T00:39:53.930Z,101713.67
2019-05-06T00:41:04.062Z,101712.76
2019-05-06T00:42:27.968Z,101718.22
2019-05-06T00:43:34.491Z,101712.80
2019-05-06T00:44:43.895Z,101717.86
2019-05-06T00:45:48.902Z,101719.28
2019-05-06T00:46:54.610Z,101718.61
2019-05-06T00:47:59.587Z,101722.17
2019-05-06T00:49:04.597Z,101715.61
2019-05-06T00:50:09.616Z,101717.89
2019-05-06T00:51:14.650Z,101718.16
2019-05-06T00:52:19.658Z,101715.76
2019-05-06T00:53:25.576Z,101715.77
2019-05-06T00:54:30.417Z,101712.08
2019-05-06T00:55:34.898Z,101721.37
2019-05-06T00:56:40.024Z,101716.30
2019-05-06T00:57:45.074Z,101713.42
2019-05-06T00:58:50.112Z,101710.99
2019-05-06T00:59:55.162Z,101708.23
2019-05-06T01:01:00.522Z,101711.14
2019-05-06T01:02:05.372Z,101709.19
2019-05-06T01:03:10.446Z,101716.30
2019-05-06T01:04:16.138Z,101714.28
2019-05-06T01:05:21.454Z,101709.69
2019-05-06T01:06:26.453Z,101713.53
2019-05-06T01:07:31.206Z,101707.95
2019-05-06T01:08:35.992Z,101709.41
2019-05-06T01:09:40.601Z,101702.19
2019-05-06T01:10:45.384Z,101712.56
2019-05-06T01:11:54.061Z,101714.75
2019-05-06T01:13:04.297Z,101716.45
2019-05-06T01:14:14.822Z,101709.33
2019-05-06T01:15:20.363Z,101716.67
2019-05-06T01:16:25.225Z,101714.91
2019-05-06T01:17:30.087Z,101716.16
2019-05-06T01:18:35.082Z,101715.55
2019-05-06T01:19:40.500Z,101715.27
2019-05-06T01:20:45.786Z,101712.13
2019-05-06T01:21:51.080Z,101719.98
2019-05-06T01:22:56.166Z,101716.55
2019-05-06T01:24:00.918Z,101714.50
2019-05-06T01:25:05.464Z,101713.79
2019-05-06T01:26:10.498Z,101715.43
2019-05-06T01:27:15.817Z,101713.02
2019-05-06T01:28:20.842Z,101715.52
2019-05-06T01:29:26.118Z,101711.53
2019-05-06T01:30:33.566Z,101709.84
2019-05-06T01:31:42.895Z,101710.14
2019-05-06T01:32:45.990Z,101706.93
2019-05-06T01:33:53.555Z,101714.49
2019-05-06T01:34:58.702Z,101709.90
2019-05-06T01:36:04.550Z,101710.38
2019-05-06T01:37:09.552Z,101708.39
2019-05-06T01:38:34.074Z,101708.83
2019-05-06T01:39:46.781Z,101713.70
2019-05-06T01:41:00.955Z,101715.07
2019-05-06T01:42:14.002Z,101716.52
2019-05-06T01:43:24.150Z,101711.27
2019-05-06T01:44:29.431Z,101710.91
2019-05-06T01:45:34.909Z,101712.90
2019-05-06T01:46:40.224Z,101712.94
2019-05-06T01:47:45.501Z,101720.59
2019-05-06T01:48:50.227Z,101719.53
2019-05-06T01:49:55.614Z,101717.63
2019-05-06T01:51:00.593Z,101719.28
2019-05-06T01:52:05.441Z,101720.02
2019-05-06T01:53:10.426Z,101718.77
2019-05-06T01:54:14.892Z,101718.33
2019-05-06T01:55:19.915Z,101714.66
2019-05-06T01:56:24.734Z,101721.00
2019-05-06T01:57:30.022Z,101717.00
2019-05-06T01:58:35.366Z,101715.84
2019-05-06T01:59:41.004Z,101722.00
2019-05-06T02:00:45.758Z,101721.45
2019-05-06T02:01:58.016Z,101721.48
2019-05-06T02:02:57.240Z,101723.53
2019-05-06T02:04:04.219Z,101721.72
2019-05-06T02:05:09.072Z,101722.78
2019-05-06T02:06:14.239Z,101724.59
2019-05-06T02:07:19.932Z,101716.57
2019-05-06T02:08:24.985Z,101726.77
2019-05-06T02:09:30.002Z,101722.65
2019-05-06T02:10:38.049Z,101726.66
2019-05-06T02:11:44.430Z,101723.61
2019-05-06T02:12:49.285Z,101725.37
2019-05-06T02:13:54.032Z,101722.70
2019-05-06T02:14:59.010Z,101721.98
2019-05-06T02:16:04.322Z,101729.74
2019-05-06T02:17:09.834Z,101727.92
2019-05-06T02:18:14.932Z,101725.73
2019-05-06T02:19:19.942Z,101724.09
2019-05-06T02:20:25.235Z,101717.48
2019-05-06T02:21:47.276Z,101723.38
2019-05-06T02:23:01.649Z,101722.92
2019-05-06T02:24:08.121Z,101719.98
2019-05-06T02:25:19.861Z,101719.87
2019-05-06T02:26:25.181Z,101717.19
2019-05-06T02:27:30.244Z,101714.22
2019-05-06T02:28:36.797Z,101715.00
2019-05-06T02:29:54.319Z,101713.20
2019-05-06T02:31:16.455Z,101716.61
2019-05-06T02:32:31.459Z,101713.83
2019-05-06T02:33:39.446Z,101715.28
2019-05-06T02:34:57.465Z,101718.47
2019-05-06T02:36:07.020Z,101720.49
2019-05-06T02:37:30.908Z,101714.92
2019-05-06T02:38:46.685Z,101712.56
2019-05-06T02:39:43.849Z,101715.28
2019-05-06T02:40:48.981Z,101720.24
2019-05-06T02:41:54.831Z,101719.55
2019-05-06T02:43:02.962Z,101717.86
2019-05-06T02:44:10.030Z,101720.97
2019-05-06T02:45:12.944Z,101711.63
2019-05-06T02:46:18.008Z,101721.77
2019-05-06T02:47:44.779Z,101718.02
2019-05-06T02:49:17.794Z,101718.61
2019-05-06T02:50:24.089Z,101721.89
2019-05-06T02:51:33.375Z,101727.94
2019-05-06T02:52:37.578Z,101720.90
2019-05-06T02:53:43.055Z,101714.99
2019-05-06T02:54:47.596Z,101722.47
2019-05-06T02:55:53.289Z,101721.16
2019-05-06T02:56:58.680Z,101715.95
2019-05-06T02:58:03.953Z,101723.12
2019-05-06T02:59:08.939Z,101721.21
2019-05-06T03:00:16.501Z,101718.88
2019-05-06T03:01:23.404Z,101717.86
2019-05-06T03:02:39.893Z,101720.52
2019-05-06T03:03:34.900Z,101721.46
2019-05-06T03:04:40.185Z,101716.29
2019-05-06T03:05:45.313Z,101713.20
2019-05-06T03:06:49.799Z,101718.13
2019-05-06T03:07:57.585Z,101719.59
2019-05-06T03:09:03.136Z,101710.88
2019-05-06T03:10:09.583Z,101713.85
2019-05-06T03:11:14.650Z,101719.30
2019-05-06T03:12:22.631Z,101714.23
2019-05-06T03:13:26.391Z,101713.77
2019-05-06T03:14:34.258Z,101708.70
2019-05-06T03:15:37.737Z,101716.33
2019-05-06T03:16:44.122Z,101717.89
2019-05-06T03:17:49.474Z,101708.63
2019-05-06T03:18:54.453Z,101706.52
2019-05-06T03:20:03.985Z,101710.12
2019-05-06T03:21:24.839Z,101712.03
2019-05-06T03:22:38.983Z,101709.28
2019-05-06T03:23:46.972Z,101696.15
2019-05-06T03:25:06.335Z,101699.95
2019-05-06T03:26:07.155Z,101705.44
2019-05-06T03:27:14.312Z,101697.64
2019-05-06T03:28:18.894Z,101703.61
2019-05-06T03:29:25.323Z,101699.58
2019-05-06T03:30:29.946Z,101699.20
2019-05-06T03:31:36.672Z,101701.78
2019-05-06T03:33:18.733Z,101699.31
2019-05-06T03:34:05.937Z,101702.53
2019-05-06T03:35:15.847Z,101704.75
2019-05-06T03:36:15.111Z,101705.85
2019-05-06T03:37:09.100Z,101706.80
2019-05-06T03:38:14.460Z,101709.78
2019-05-06T03:39:19.778Z,101706.48
2019-05-06T03:40:25.095Z,101711.66
2019-05-06T03:41:30.185Z,101710.35
2019-05-06T03:42:35.359Z,101708.11
2019-05-06T03:43:43.101Z,101709.45
2019-05-06T03:44:52.961Z,101708.43
2019-05-06T03:46:14.314Z,101716.57
2019-05-06T03:47:38.439Z,101711.77
2019-05-06T03:48:45.577Z,101711.30
2019-05-06T03:49:54.393Z,101710.58
2019-05-06T03:50:57.262Z,101708.48
2019-05-06T03:52:02.836Z,101713.34
2019-05-06T03:53:08.895Z,101715.89
2019-05-06T03:54:14.942Z,101713.60
2019-05-06T03:55:19.733Z,101710.89
2019-05-06T03:56:25.341Z,101719.30
2019-05-06T03:57:35.431Z,101718.94
2019-05-06T03:58:38.325Z,101719.22
2019-05-06T03:59:43.680Z,101716.14
2019-05-06T04:00:52.902Z,101713.91
2019-05-06T04:01:56.469Z,101717.61
2019-05-06T04:03:03.166Z,101711.77
2019-05-06T04:04:08.617Z,101710.87
2019-05-06T04:05:13.700Z,101717.67
2019-05-06T04:06:18.425Z,101711.91
2019-05-06T04:07:23.827Z,101714.23
2019-05-06T04:08:28.883Z,101711.44
2019-05-06T04:09:36.879Z,101709.11
2019-05-06T04:10:43.586Z,101705.34
2019-05-06T04:11:47.503Z,101707.69
2019-05-06T04:12:54.125Z,101709.98
2019-05-06T04:13:59.235Z,101708.22
2019-05-06T04:15:04.659Z,101713.64
2019-05-06T04:16:33.787Z,101703.59
2019-05-06T04:17:48.409Z,101709.05
2019-05-06T04:19:00.340Z,101709.48
2019-05-06T04:20:14.122Z,101710.03
2019-05-06T04:21:27.568Z,101712.68
2019-05-06T04:22:39.441Z,101712.72
2019-05-06T04:24:04.366Z,101712.20
2019-05-06T04:25:23.166Z,101722.09
2019-05-06T04:26:46.471Z,101720.92
2019-05-06T04:27:57.062Z,101727.12
2019-05-06T04:29:03.968Z,101724.14
2019-05-06T04:30:09.104Z,101717.23
2019-05-06T04:31:14.225Z,101719.72
2019-05-06T04:32:23.242Z,101728.77
2019-05-06T04:33:26.919Z,101719.03
2019-05-06T04:34:33.315Z,101722.25
2019-05-06T04:35:38.363Z,101724.56
2019-05-06T04:36:44.072Z,101723.45
2019-05-06T04:37:49.594Z,101716.48
2019-05-06T04:38:54.558Z,101729.52
2019-05-06T04:39:59.591Z,101728.49
2019-05-06T04:41:04.642Z,101730.80
2019-05-06T04:42:09.903Z,101730.23
2019-05-06T04:43:15.433Z,101735.84
2019-05-06T04:44:23.523Z,101733.98
2019-05-06T04:45:27.009Z,101734.16
2019-05-06T04:46:34.945Z,101725.83
2019-05-06T04:47:38.533Z,101727.50
2019-05-06T04:48:44.607Z,101733.45
2019-05-06T04:49:49.463Z,101734.09
2019-05-06T04:50:54.703Z,101734.13
2019-05-06T04:51:59.670Z,101733.42
2019-05-06T04:53:05.377Z,101731.13
2019-05-06T04:54:13.435Z,101728.55
2019-05-06T04:55:17.228Z,101728.20
2019-05-06T04:56:23.672Z,101732.52
2019-05-06T04:57:28.887Z,101729.30
2019-05-06T04:58:34.006Z,101727.83
2019-05-06T04:59:39.137Z,101731.49
2019-05-06T05:00:44.891Z,101727.05
2019-05-06T05:01:53.172Z,101730.18
2019-05-06T05:02:56.840Z,101730.30
2019-05-06T05:04:03.465Z,101732.86
2019-05-06T05:05:08.532Z,101727.02
2019-05-06T05:06:13.804Z,101737.28
2019-05-06T05:07:22.308Z,101727.99
2019-05-06T05:08:42.567Z,101728.37
2019-05-06T05:09:46.772Z,101719.70
2019-05-06T05:10:57.779Z,101725.42
2019-05-06T05:12:08.430Z,101724.47
2019-05-06T05:13:25.839Z,101727.31
2019-05-06T05:14:52.948Z,101725.36
2019-05-06T05:16:28.556Z,101729.13
2019-05-06T05:17:47.028Z,101724.52
2019-05-06T05:18:55.533Z,101733.12
2019-05-06T05:20:02.102Z,101732.38
2019-05-06T05:21:07.013Z,101737.30
2019-05-06T05:22:12.620Z,101732.53
2019-05-06T05:23:17.360Z,101735.37
2019-05-06T05:24:23.499Z,101732.67
2019-05-06T05:25:28.303Z,101732.86
2019-05-06T05:26:32.771Z,101735.59
2019-05-06T05:27:37.871Z,101736.73
2019-05-06T05:28:43.231Z,101734.03
2019-05-06T05:29:48.238Z,101740.44
2019-05-06T05:30:53.539Z,101738.91
2019-05-06T05:31:57.991Z,101738.76
2019-05-06T05:33:02.711Z,101738.16
2019-05-06T05:34:07.447Z,101737.06
2019-05-06T05:35:12.863Z,101742.91
2019-05-06T05:36:17.842Z,101737.34
2019-05-06T05:37:22.888Z,101740.70
2019-05-06T05:38:28.108Z,101742.00
2019-05-06T05:39:33.390Z,101739.70
2019-05-06T05:40:38.934Z,101742.56
2019-05-06T05:41:44.249Z,101745.50
2019-05-06T05:43:08.210Z,101745.53
2019-05-06T05:44:17.918Z,101747.89
2019-05-06T05:45:22.619Z,101750.05
2019-05-06T05:46:27.696Z,101751.73
2019-05-06T05:47:33.134Z,101749.83
2019-05-06T05:48:55.505Z,101746.88
2019-05-06T05:50:24.982Z,101750.23
2019-05-06T05:51:31.885Z,101752.58
2019-05-06T05:52:36.335Z,101747.21
2019-05-06T05:53:42.593Z,101749.20
2019-05-06T05:54:47.886Z,101744.11
2019-05-06T05:55:53.164Z,101741.11
2019-05-06T05:56:57.795Z,101740.56
2019-05-06T05:58:03.380Z,101743.11
2019-05-06T05:59:08.158Z,101747.39
2019-05-06T06:00:14.998Z,101747.91
2019-05-06T06:01:19.905Z,101751.33
2019-05-06T06:02:25.258Z,101750.73
2019-05-06T06:03:31.983Z,101740.30
2019-05-06T06:04:36.825Z,101742.97
2019-05-06T06:05:42.859Z,101734.25
2019-05-06T06:06:47.803Z,101737.88
2019-05-06T06:07:53.135Z,101735.25
2019-05-06T06:08:58.266Z,101736.46
2019-05-06T06:10:15.256Z,101738.09
2019-05-06T06:11:24.196Z,101735.34
2019-05-06T06:12:29.440Z,101738.50
2019-05-06T06:13:34.419Z,101736.91
2019-05-06T06:14:57.960Z,101746.41
2019-05-06T06:16:20.643Z,101748.21
2019-05-06T06:17:51.917Z,101757.61
2019-05-06T06:19:23.051Z,101758.41
2019-05-06T06:20:45.713Z,101764.29
2019-05-06T06:22:03.285Z,101751.27
2019-05-06T06:23:20.169Z,101753.81
2019-05-06T06:24:32.592Z,101751.12
2019-05-06T06:25:39.094Z,101749.41
2019-05-06T06:26:44.114Z,101748.78
2019-05-06T06:27:51.860Z,101741.45
2019-05-06T06:28:56.295Z,101748.81
2019-05-06T06:30:02.388Z,101741.58
2019-05-06T06:31:16.582Z,101743.60
2019-05-06T06:32:26.710Z,101743.27
2019-05-06T06:33:32.997Z,101744.03
2019-05-06T06:34:42.852Z,101745.00
2019-05-06T06:35:56.694Z,101748.02
2019-05-06T06:37:29.675Z,101747.03
2019-05-06T06:38:48.968Z,101748.41
2019-05-06T06:39:54.107Z,101743.52
2019-05-06T06:40:58.892Z,101748.38
2019-05-06T06:42:03.963Z,101748.97
2019-05-06T06:43:13.427Z,101749.25
2019-05-06T06:44:22.145Z,101746.38
2019-05-06T06:45:27.121Z,101743.77
2019-05-06T06:46:32.403Z,101751.59
2019-05-06T06:47:37.503Z,101749.91
2019-05-06T06:48:43.006Z,101745.21
2019-05-06T06:49:48.193Z,101749.95
2019-05-06T06:50:53.667Z,101754.97
2019-05-06T06:51:58.648Z,101747.64
2019-05-06T06:53:03.379Z,101742.88
2019-05-06T06:54:08.117Z,101749.84
2019-05-06T06:55:13.436Z,101738.41
2019-05-06T06:56:42.689Z,101748.00
2019-05-06T06:58:15.970Z,101743.73
2019-05-06T06:59:26.588Z,101750.52
2019-05-06T07:00:43.715Z,101750.59
2019-05-06T07:01:58.438Z,101746.98
2019-05-06T07:03:17.014Z,101753.64
2019-05-06T07:04:32.482Z,101751.48
2019-05-06T07:05:46.350Z,101754.32
2019-05-06T07:06:53.282Z,101748.74
2019-05-06T07:07:58.278Z,101750.95
2019-05-06T07:09:05.226Z,101750.41
2019-05-06T07:10:12.881Z,101753.70
2019-05-06T07:11:18.136Z,101744.74
2019-05-06T07:12:23.442Z,101752.11
2019-05-06T07:13:28.504Z,101748.97
2019-05-06T07:14:36.221Z,101749.84
2019-05-06T07:15:42.780Z,101755.16
2019-05-06T07:16:47.435Z,101757.12
2019-05-06T07:17:52.489Z,101750.73
2019-05-06T07:18:57.323Z,101750.64
2019-05-06T07:20:05.144Z,101745.51
2019-05-06T07:21:15.952Z,101753.02
2019-05-06T07:22:23.165Z,101754.38
2019-05-06T07:23:28.538Z,101758.69
2019-05-06T07:24:33.781Z,101761.79
2019-05-06T07:25:38.581Z,101759.27
2019-05-06T07:26:47.074Z,101768.67
2019-05-06T07:27:52.939Z,101769.34
2019-05-06T07:28:58.291Z,101768.98
2019-05-06T07:30:03.725Z,101765.53
2019-05-06T07:31:20.713Z,101766.91
2019-05-06T07:32:15.453Z,101766.23
2019-05-06T07:33:22.658Z,101766.57
2019-05-06T07:34:27.455Z,101767.60
2019-05-06T07:35:40.804Z,101771.71
2019-05-06T07:36:38.904Z,101776.95
2019-05-06T07:37:43.763Z,101776.15
2019-05-06T07:38:52.733Z,101775.56
2019-05-06T07:39:57.861Z,101777.88
2019-05-06T07:41:14.471Z,101773.66
2019-05-06T07:42:22.731Z,101777.83
2019-05-06T07:43:38.182Z,101782.82
2019-05-06T07:45:06.490Z,101782.97
2019-05-06T07:46:15.255Z,101781.27
2019-05-06T07:47:45.208Z,101781.88
2019-05-06T07:48:51.886Z,101778.59
2019-05-06T07:49:56.646Z,101776.23
2019-05-06T07:51:03.035Z,101777.45
2019-05-06T07:52:08.184Z,101772.61
2019-05-06T07:53:13.440Z,101773.51
2019-05-06T07:54:18.146Z,101773.66
2019-05-06T07:55:23.179Z,101769.12
2019-05-06T07:56:27.938Z,101770.38
2019-05-06T07:57:33.170Z,101772.82
2019-05-06T07:58:38.534Z,101772.43
2019-05-06T07:59:43.091Z,101774.50
2019-05-06T08:00:48.343Z,101769.52
2019-05-06T08:01:54.073Z,101768.45
2019-05-06T08:02:58.964Z,101769.97
2019-05-06T08:04:03.708Z,101768.31
2019-05-06T08:05:08.876Z,101771.40
2019-05-06T08:06:13.885Z,101775.47
2019-05-06T08:07:18.924Z,101768.23
2019-05-06T08:08:23.925Z,101764.00
2019-05-06T08:09:28.634Z,101761.47
2019-05-06T08:10:33.507Z,101763.00
2019-05-06T08:11:38.329Z,101754.91
2019-05-06T08:12:43.015Z,101760.80
2019-05-06T08:13:48.267Z,101765.00
2019-05-06T08:14:52.970Z,101766.27
2019-05-06T08:15:57.833Z,101763.97
2019-05-06T08:17:04.607Z,101762.07
2019-05-06T08:18:09.847Z,101761.30
2019-05-06T08:19:14.833Z,101758.45
2019-05-06T08:20:22.012Z,101757.14
2019-05-06T08:21:28.198Z,101752.76
2019-05-06T08:22:46.626Z,101754.61
2019-05-06T08:23:52.415Z,101746.16
2019-05-06T08:24:56.970Z,101746.46
2019-05-06T08:26:11.534Z,101764.40
2019-05-06T08:27:08.716Z,101753.86
2019-05-06T08:28:13.712Z,101747.44
2019-05-06T08:29:18.388Z,101742.56
2019-05-06T08:30:23.173Z,101748.81
2019-05-06T08:31:28.150Z,101747.81
2019-05-06T08:32:33.389Z,101748.75
2019-05-06T08:33:38.054Z,101750.84
2019-05-06T08:34:42.527Z,101750.80
2019-05-06T08:35:47.750Z,101744.78
2019-05-06T08:37:07.075Z,101750.16
2019-05-06T08:38:12.322Z,101747.29
2019-05-06T08:39:17.338Z,101747.08
2019-05-06T08:40:22.718Z,101753.25
2019-05-06T08:41:29.025Z,101749.86
2019-05-06T08:42:34.484Z,101745.53
2019-05-06T08:43:41.930Z,101744.44
2019-05-06T08:44:46.790Z,101754.78
2019-05-06T08:45:52.792Z,101756.08
2019-05-06T08:46:57.612Z,101754.18
2019-05-06T08:48:02.952Z,101746.91
2019-05-06T08:49:07.676Z,101748.66
2019-05-06T08:50:27.690Z,101739.34
2019-05-06T08:51:39.141Z,101739.62
2019-05-06T08:53:05.114Z,101738.99
2019-05-06T08:54:17.652Z,101740.16
2019-05-06T08:55:32.618Z,101748.72
2019-05-06T08:56:37.496Z,101751.48
2019-05-06T08:57:42.531Z,101742.91
2019-05-06T08:58:47.893Z,101742.91
2019-05-06T08:59:53.644Z,101753.86
2019-05-06T09:01:06.102Z,101746.70
2019-05-06T09:02:13.555Z,101748.02
2019-05-06T09:03:17.831Z,101747.65
2019-05-06T09:04:23.129Z,101748.13
2019-05-06T09:05:27.878Z,101714.41
2019-05-06T09:06:34.308Z,101732.72
2019-05-06T09:07:39.068Z,101712.55
2019-05-06T09:08:44.059Z,101721.11
2019-05-06T09:09:49.361Z,101720.97
2019-05-06T09:10:54.152Z,101740.75
2019-05-06T09:11:59.126Z,101745.95
2019-05-06T09:13:03.860Z,101740.43
2019-05-06T09:14:09.965Z,101743.87
2019-05-06T09:15:15.208Z,101741.95
2019-05-06T09:16:22.258Z,101742.97
2019-05-06T09:17:26.797Z,101736.07
2019-05-06T09:18:32.921Z,101743.05
2019-05-06T09:19:37.957Z,101739.72
2019-05-06T09:20:43.149Z,101741.56
2019-05-06T09:21:48.581Z,101744.20
2019-05-06T09:22:53.561Z,101743.97
2019-05-06T09:23:58.294Z,101740.89
2019-05-06T09:25:02.995Z,101743.31
2019-05-06T09:26:09.643Z,101740.67
2019-05-06T09:27:22.721Z,101739.15
2019-05-06T09:28:45.172Z,101741.00
2019-05-06T09:29:52.433Z,101740.82
2019-05-06T09:31:09.569Z,101732.36
2019-05-06T09:32:18.826Z,101734.68
2019-05-06T09:33:28.958Z,101740.78
2019-05-06T09:34:42.881Z,101728.28
2019-05-06T09:35:47.067Z,101735.28
2019-05-06T09:37:13.443Z,101732.97
2019-05-06T09:38:18.236Z,101730.01
2019-05-06T09:39:23.233Z,101723.10
2019-05-06T09:40:27.697Z,101726.14
2019-05-06T09:41:32.647Z,101726.92
2019-05-06T09:42:38.038Z,101738.53
2019-05-06T09:43:43.288Z,101725.27
2019-05-06T09:44:50.619Z,101721.48
2019-05-06T09:45:55.225Z,101714.81
2019-05-06T09:47:02.359Z,101722.81
2019-05-06T09:48:15.753Z,101720.23
2019-05-06T09:49:23.506Z,101723.79
2019-05-06T09:50:45.517Z,101730.12
2019-05-06T09:51:46.705Z,101727.18
2019-05-06T09:52:52.842Z,101723.92
2019-05-06T09:54:12.903Z,101728.07
2019-05-06T09:55:49.055Z,101722.09
2019-05-06T09:57:02.284Z,101722.58
2019-05-06T09:58:07.467Z,101717.10
2019-05-06T09:59:13.026Z,101719.32
2019-05-06T10:00:18.386Z,101719.42
2019-05-06T10:01:23.384Z,101717.54
2019-05-06T10:02:28.495Z,101724.53
2019-05-06T10:03:33.510Z,101716.64
2019-05-06T10:04:38.870Z,101711.00
2019-05-06T10:05:43.353Z,101713.25
2019-05-06T10:06:56.225Z,101709.83
2019-05-06T10:07:54.893Z,101716.85
2019-05-06T10:09:04.262Z,101717.46
2019-05-06T10:10:06.440Z,101718.92
2019-05-06T10:11:11.982Z,101709.27
2019-05-06T10:12:16.965Z,101708.18
2019-05-06T10:13:21.787Z,101711.11
2019-05-06T10:14:26.815Z,101713.41
2019-05-06T10:15:32.561Z,101704.05
2019-05-06T10:16:37.833Z,101703.42
2019-05-06T10:17:42.965Z,101705.27
2019-05-06T10:18:47.652Z,101707.86
2019-05-06T10:19:52.114Z,101698.73
2019-05-06T10:20:57.111Z,101702.86
2019-05-06T10:22:03.583Z,101700.49
2019-05-06T10:23:09.032Z,101697.34
2019-05-06T10:24:14.228Z,101694.42
2019-05-06T10:25:19.280Z,101699.62
2019-05-06T10:26:24.523Z,101697.92
2019-05-06T10:27:29.050Z,101703.47
2019-05-06T10:28:47.419Z,101703.02
2019-05-06T10:30:04.897Z,101702.85
2019-05-06T10:31:12.759Z,101700.20
2019-05-06T10:32:23.343Z,101704.64
2019-05-06T10:33:28.709Z,101700.38
2019-05-06T10:34:33.734Z,101710.75
2019-05-06T10:35:38.790Z,101698.80
2019-05-06T10:36:53.246Z,101704.86
2019-05-06T10:38:30.624Z,101702.80
2019-05-06T10:39:41.142Z,101700.45
2019-05-06T10:41:00.935Z,101704.59
2019-05-06T10:42:13.253Z,101702.70
2019-05-06T10:43:27.911Z,101701.91
2019-05-06T10:44:42.938Z,101700.00
2019-05-06T10:45:47.715Z,101699.41
2019-05-06T10:46:52.885Z,101693.73
2019-05-06T10:47:57.924Z,101693.05
2019-05-06T10:49:03.877Z,101701.94
2019-05-06T10:50:08.760Z,101690.13
2019-05-06T10:51:19.451Z,101690.41
2019-05-06T10:52:27.660Z,101687.63
2019-05-06T10:53:33.056Z,101693.63
2019-05-06T10:54:38.007Z,101692.41
2019-05-06T10:55:44.953Z,101689.37
2019-05-06T10:56:58.502Z,101685.95
2019-05-06T10:58:03.199Z,101688.72
2019-05-06T10:59:08.112Z,101687.84
2019-05-06T11:00:12.917Z,101686.63
2019-05-06T11:01:26.243Z,101687.63
2019-05-06T11:02:56.415Z,101685.41
2019-05-06T11:04:02.817Z,101692.05
2019-05-06T11:05:07.636Z,101680.73
2019-05-06T11:06:13.126Z,101683.17
2019-05-06T11:07:30.986Z,101685.05
2019-05-06T11:08:25.190Z,101679.59
2019-05-06T11:09:29.911Z,101677.17
2019-05-06T11:10:40.735Z,101683.77
2019-05-06T11:11:42.759Z,101683.88
2019-05-06T11:12:47.849Z,101684.72
2019-05-06T11:13:52.365Z,101683.06
2019-05-06T11:14:57.344Z,101681.05
2019-05-06T11:16:03.434Z,101678.22
2019-05-06T11:17:08.476Z,101678.32
2019-05-06T11:18:13.896Z,101679.68
2019-05-06T11:19:18.382Z,101679.84
2019-05-06T11:20:24.125Z,101681.10
2019-05-06T11:21:29.224Z,101680.40
2019-05-06T11:22:34.318Z,101682.41
2019-05-06T11:23:39.447Z,101680.83
2019-05-06T11:24:44.463Z,101681.23
2019-05-06T11:25:49.551Z,101678.59
2019-05-06T11:26:54.489Z,101677.70
2019-05-06T11:27:59.444Z,101674.52
2019-05-06T11:29:08.483Z,101679.75
2019-05-06T11:30:24.677Z,101669.72
2019-05-06T11:31:43.224Z,101680.41
2019-05-06T11:32:55.162Z,101674.87
2019-05-06T11:34:06.529Z,101677.80
2019-05-06T11:35:26.645Z,101680.47
2019-05-06T11:36:43.726Z,101680.16
2019-05-06T11:37:54.232Z,101679.48
2019-05-06T11:38:58.616Z,101676.56
2019-05-06T11:40:03.418Z,101678.50
2019-05-06T11:41:08.153Z,101681.50
2019-05-06T11:42:28.115Z,101675.57
2019-05-06T11:43:19.839Z,101681.56
2019-05-06T11:44:24.918Z,101685.50
2019-05-06T11:45:29.633Z,101673.66
2019-05-06T11:46:34.985Z,101683.27
2019-05-06T11:47:42.108Z,101677.75
2019-05-06T11:48:46.587Z,101671.69
2019-05-06T11:49:56.213Z,101675.13
2019-05-06T11:51:02.568Z,101677.67
2019-05-06T11:52:07.269Z,101677.14
2019-05-06T11:53:12.598Z,101677.87
2019-05-06T11:54:20.738Z,101679.95
2019-05-06T11:55:31.744Z,101677.96
2019-05-06T11:56:29.943Z,101680.63
2019-05-06T11:57:34.495Z,101680.35
2019-05-06T11:58:53.132Z,101671.46
2019-05-06T11:59:57.577Z,101669.67
2019-05-06T12:01:05.618Z,101665.07
2019-05-06T12:02:12.754Z,101668.55
2019-05-06T12:03:17.668Z,101670.54
2019-05-06T12:04:23.024Z,101670.95
2019-05-06T12:05:28.051Z,101673.14
2019-05-06T12:06:33.346Z,101671.83
2019-05-06T12:07:37.827Z,101673.58
2019-05-06T12:08:43.163Z,101678.84
2019-05-06T12:09:48.389Z,101676.33
2019-05-06T12:10:53.756Z,101673.13
2019-05-06T12:11:58.960Z,101673.28
2019-05-06T12:13:04.204Z,101683.50
2019-05-06T12:14:08.911Z,101675.46
2019-05-06T12:15:13.759Z,101673.19
2019-05-06T12:16:18.606Z,101676.05
2019-05-06T12:17:23.885Z,101677.30
2019-05-06T12:18:28.873Z,101678.70
2019-05-06T12:19:34.101Z,101677.75
2019-05-06T12:20:39.174Z,101687.22
2019-05-06T12:21:43.907Z,101674.90
2019-05-06T12:22:48.577Z,101678.87
2019-05-06T12:23:53.980Z,101679.34
2019-05-06T12:24:59.070Z,101683.02
2019-05-06T12:26:04.612Z,101682.62
2019-05-06T12:27:09.341Z,101679.02
2019-05-06T12:28:17.335Z,101682.30
2019-05-06T12:29:20.689Z,101672.22
2019-05-06T12:30:25.408Z,101687.77
2019-05-06T12:31:32.584Z,101682.21
2019-05-06T12:32:43.172Z,101678.95
2019-05-06T12:33:49.356Z,101675.43
2019-05-06T12:34:54.264Z,101676.85
2019-05-06T12:36:02.566Z,101667.95
2019-05-06T12:37:09.175Z,101668.44
2019-05-06T12:38:29.506Z,101671.01
2019-05-06T12:39:29.951Z,101676.23
2019-05-06T12:40:34.677Z,101675.74
2019-05-06T12:42:15.290Z,101678.55
2019-05-06T12:43:37.399Z,101678.34
2019-05-06T12:44:46.165Z,101679.73
2019-05-06T12:45:53.369Z,101678.80
2019-05-06T12:47:26.794Z,101672.80
2019-05-06T12:48:35.676Z,101680.52
2019-05-06T12:49:42.598Z,101677.84
2019-05-06T12:50:48.075Z,101676.17
2019-05-06T12:51:53.775Z,101670.88
2019-05-06T12:52:58.249Z,101678.88
2019-05-06T12:54:03.497Z,101675.95
2019-05-06T12:55:18.249Z,101672.68